Time;durP1;ratioP1;P1;durP2;ratioP2;P2;SDS_P1;SDS_P2;PMS_P1;PMS_P2;Temp;Humidity;BMP_temperature;BMP_pressure;BME280_temperature;BME280_humidity;BME280_pressure;Samples;Min_cycle;Max_cycle;Signal;HPM_P1;HPM_P2
2021/09/09 00:01:24;;;;;;;8.15;2.28;;;40.60;36.40;;;;;;5120782;27;20081;-47
2021/09/09 00:03:51;;;;;;;12.15;2.40;;;40.50;36.40;;;;;;5119795;27;20077;-49
2021/09/09 00:06:17;;;;;;;12.77;2.75;;;40.50;38.10;;;;;;5120234;27;20080;-48
2021/09/09 00:08:44;;;;;;;15.82;2.70;;;40.40;38.00;;;;;;5116297;27;20080;-50
2021/09/09 00:11:11;;;;;;;12.10;2.33;;;40.20;38.50;;;;;;5118557;27;20159;-47
2021/09/09 00:13:39;;;;;;;20.20;3.17;;;40.20;39.20;;;;;;5110070;27;20096;-47
2021/09/09 00:16:06;;;;;;;12.85;2.70;;;40.10;39.00;;;;;;5115292;27;20084;-48
2021/09/09 00:18:33;;;;;;;19.60;2.83;;;40.00;38.80;;;;;;5117037;27;20106;-47
2021/09/09 00:21:01;;;;;;;12.98;2.15;;;39.90;38.80;;;;;;5116492;27;20163;-51
2021/09/09 00:23:27;;;;;;;14.00;2.28;;;39.80;39.10;;;;;;5115844;27;20138;-50
2021/09/09 00:25:54;;;;;;;17.80;2.30;;;39.70;39.10;;;;;;5114868;27;20104;-50
2021/09/09 00:28:21;;;;;;;10.32;2.20;;;39.60;39.50;;;;;;5116277;27;20159;-52
2021/09/09 00:30:50;;;;;;;11.60;2.50;;;39.60;39.40;;;;;;5116660;27;20078;-48
2021/09/09 00:33:17;;;;;;;14.45;3.03;;;39.60;39.00;;;;;;5119321;27;20104;-51
2021/09/09 00:35:44;;;;;;;14.40;2.65;;;39.40;38.70;;;;;;5101769;27;20076;-47
2021/09/09 00:38:10;;;;;;;19.23;4.13;;;39.40;39.10;;;;;;5098950;27;20119;-46
2021/09/09 00:40:37;;;;;;;16.90;4.00;;;39.30;39.00;;;;;;5116956;27;20075;-50
2021/09/09 00:43:03;;;;;;;9.70;4.43;;;39.20;38.70;;;;;;5117853;27;20100;-46
2021/09/09 00:45:30;;;;;;;15.23;5.50;;;39.00;39.10;;;;;;5101206;28;20064;-47
2021/09/09 00:47:57;;;;;;;14.18;4.97;;;39.00;39.20;;;;;;5115605;27;20068;-50
2021/09/09 00:50:23;;;;;;;17.25;6.38;;;39.00;39.50;;;;;;5121059;27;20155;-46
2021/09/09 00:52:52;;;;;;;25.15;7.70;;;39.00;39.50;;;;;;5115596;27;20064;-49
2021/09/09 00:55:19;;;;;;;16.55;7.50;;;38.90;39.60;;;;;;5108900;27;20130;-48
2021/09/09 00:57:47;;;;;;;17.92;8.13;;;38.80;40.40;;;;;;5119259;27;20086;-48
2021/09/09 01:00:16;;;;;;;24.13;7.75;;;38.60;40.60;;;;;;5117156;27;20128;-48
2021/09/09 01:02:42;;;;;;;23.60;6.75;;;38.50;40.60;;;;;;5118986;27;20072;-47
2021/09/09 01:05:10;;;;;;;20.85;5.90;;;38.50;41.10;;;;;;5123154;27;20080;-51
2021/09/09 01:07:37;;;;;;;18.88;5.55;;;38.40;40.90;;;;;;5119664;27;20075;-49
2021/09/09 01:10:04;;;;;;;26.33;5.38;;;38.40;41.20;;;;;;5118122;27;20066;-50
2021/09/09 01:12:30;;;;;;;19.17;4.10;;;38.40;41.20;;;;;;5114505;27;20097;-48
2021/09/09 01:14:57;;;;;;;19.55;4.10;;;38.30;41.60;;;;;;5115025;27;20080;-50
2021/09/09 01:17:23;;;;;;;15.38;3.67;;;38.10;41.40;;;;;;5112192;27;20718;-48
2021/09/09 01:19:50;;;;;;;12.05;3.70;;;38.00;41.60;;;;;;5119268;27;20182;-52
2021/09/09 01:22:16;;;;;;;13.48;3.00;;;37.90;41.90;;;;;;5116779;27;20068;-47
2021/09/09 01:24:43;;;;;;;15.02;3.22;;;37.80;42.00;;;;;;5116988;27;20094;-52
2021/09/09 01:27:09;;;;;;;10.00;3.13;;;37.80;41.90;;;;;;5116566;27;20409;-47
2021/09/09 01:29:39;;;;;;;11.73;3.28;;;37.80;42.10;;;;;;5113042;27;20075;-53
2021/09/09 01:32:07;;;;;;;12.77;3.17;;;37.70;42.50;;;;;;5113922;27;20432;-50
2021/09/09 01:34:35;;;;;;;11.05;2.40;;;37.60;42.70;;;;;;5118929;27;20148;-50
2021/09/09 01:37:01;;;;;;;21.13;3.25;;;37.60;43.10;;;;;;5116379;27;20529;-49
2021/09/09 01:39:29;;;;;;;13.23;2.40;;;37.50;43.20;;;;;;5116004;27;20580;-47
2021/09/09 01:41:57;;;;;;;17.63;2.30;;;37.50;43.90;;;;;;5115069;27;20072;-48
2021/09/09 01:44:24;;;;;;;15.45;2.97;;;37.40;44.00;;;;;;5115371;27;20096;-47
2021/09/09 01:46:51;;;;;;;15.13;2.85;;;37.40;44.10;;;;;;5118299;27;20462;-47
2021/09/09 01:49:20;;;;;;;9.52;2.38;;;37.30;44.10;;;;;;5120049;27;20088;-48
2021/09/09 01:51:47;;;;;;;19.23;2.70;;;37.20;44.20;;;;;;5115907;27;20064;-49
2021/09/09 01:54:14;;;;;;;13.13;2.20;;;37.10;44.40;;;;;;5115477;27;20076;-46
2021/09/09 01:56:40;;;;;;;22.15;2.65;;;37.00;44.70;;;;;;5116677;27;20136;-49
2021/09/09 01:59:07;;;;;;;15.68;2.45;;;37.00;44.70;;;;;;5117259;27;20100;-52
2021/09/09 02:01:33;;;;;;;14.93;2.33;;;36.90;44.10;;;;;;5115633;27;20129;-49
2021/09/09 02:04:01;;;;;;;24.67;2.58;;;36.90;44.10;;;;;;5117291;27;20080;-50
2021/09/09 02:06:28;;;;;;;22.88;3.03;;;36.90;44.00;;;;;;5114297;27;20076;-50
2021/09/09 02:08:54;;;;;;;28.05;3.83;;;36.80;44.00;;;;;;5114617;27;20114;-46
2021/09/09 02:11:21;;;;;;;21.80;4.43;;;36.80;43.90;;;;;;5117900;27;20076;-51
2021/09/09 02:13:47;;;;;;;22.77;6.20;;;36.70;44.00;;;;;;5116074;27;20084;-46
2021/09/09 02:16:14;;;;;;;32.88;6.60;;;36.70;43.90;;;;;;5116681;27;20513;-50
2021/09/09 02:18:40;;;;;;;29.17;5.53;;;36.60;43.70;;;;;;5116099;27;20545;-48
2021/09/09 02:21:07;;;;;;;23.80;5.85;;;36.60;43.70;;;;;;5099170;27;20068;-47
2021/09/09 02:23:33;;;;;;;23.67;6.53;;;36.50;43.90;;;;;;5116406;27;20080;-52
2021/09/09 02:26:00;;;;;;;22.70;6.65;;;36.40;43.90;;;;;;5115652;27;20083;-52
2021/09/09 02:28:26;;;;;;;25.98;5.68;;;36.40;44.00;;;;;;5117408;27;20103;-47
2021/09/09 02:30:53;;;;;;;26.80;5.32;;;36.40;43.90;;;;;;5116819;28;20067;-48
2021/09/09 02:33:19;;;;;;;26.05;5.72;;;36.30;43.80;;;;;;5113230;28;20108;-49
2021/09/09 02:35:46;;;;;;;26.77;5.20;;;36.40;43.70;;;;;;5114462;28;20100;-47
2021/09/09 02:38:12;;;;;;;25.55;5.75;;;36.30;43.40;;;;;;5109999;28;20499;-48
2021/09/09 02:40:39;;;;;;;19.27;5.80;;;36.20;43.50;;;;;;5115824;28;20085;-51
2021/09/09 02:43:06;;;;;;;24.52;8.15;;;36.30;43.50;;;;;;5112981;28;20080;-51
2021/09/09 02:45:33;;;;;;;20.63;6.72;;;36.20;43.50;;;;;;5116789;28;20228;-50
2021/09/09 02:48:02;;;;;;;18.10;5.47;;;36.20;43.30;;;;;;5118049;28;20080;-49
2021/09/09 02:50:30;;;;;;;26.88;7.93;;;36.20;43.30;;;;;;5112953;28;20555;-45
2021/09/09 02:52:56;;;;;;;23.10;9.15;;;36.10;43.10;;;;;;5117780;28;20100;-49
2021/09/09 02:55:23;;;;;;;20.05;8.98;;;36.10;43.10;;;;;;5115576;28;20082;-47
2021/09/09 02:57:49;;;;;;;24.13;7.82;;;36.00;42.90;;;;;;5117129;28;20436;-46
2021/09/09 03:00:16;;;;;;;21.42;8.13;;;36.10;42.60;;;;;;5111894;28;20537;-46
2021/09/09 03:02:43;;;;;;;19.02;7.10;;;36.10;42.20;;;;;;5109339;28;20072;-45
2021/09/09 03:05:11;;;;;;;14.98;6.97;;;36.10;42.10;;;;;;5113753;28;20091;-45
2021/09/09 03:07:37;;;;;;;21.67;8.50;;;36.10;42.20;;;;;;5115313;28;20099;-46
2021/09/09 03:10:06;;;;;;;26.88;9.82;;;36.00;42.00;;;;;;5118426;27;20071;-46
2021/09/09 03:12:33;;;;;;;25.45;9.35;;;36.00;41.80;;;;;;5119574;27;20425;-45
2021/09/09 03:15:00;;;;;;;29.88;8.40;;;36.00;41.90;;;;;;5100036;27;20071;-50
2021/09/09 03:17:26;;;;;;;27.30;8.75;;;36.00;41.70;;;;;;5115306;27;20109;-46
2021/09/09 03:19:53;;;;;;;28.23;9.00;;;36.00;41.60;;;;;;5119253;27;20119;-47
2021/09/09 03:22:20;;;;;;;33.30;9.32;;;36.00;41.60;;;;;;5120661;27;20074;-47
2021/09/09 03:24:46;;;;;;;32.08;9.95;;;36.00;41.60;;;;;;5123172;27;20084;-48
2021/09/09 03:27:13;;;;;;;33.53;10.23;;;35.90;41.50;;;;;;5121447;27;20072;-46
2021/09/09 03:29:39;;;;;;;33.30;10.20;;;35.90;41.60;;;;;;5113066;27;20072;-49
2021/09/09 03:32:06;;;;;;;28.27;10.57;;;35.90;41.40;;;;;;5117045;27;20069;-48
2021/09/09 03:34:32;;;;;;;25.80;9.40;;;35.90;41.40;;;;;;5119115;27;20190;-45
2021/09/09 03:36:59;;;;;;;25.45;9.10;;;35.90;41.40;;;;;;5112991;27;20115;-45
2021/09/09 03:39:25;;;;;;;26.73;9.90;;;35.80;41.40;;;;;;5119915;27;20099;-51
2021/09/09 03:41:52;;;;;;;28.80;9.52;;;35.80;41.50;;;;;;5118697;27;20068;-44
2021/09/09 03:44:19;;;;;;;32.53;9.75;;;35.80;41.90;;;;;;5121179;27;20126;-46
2021/09/09 03:46:45;;;;;;;32.08;9.85;;;35.70;41.50;;;;;;5119690;27;20080;-49
2021/09/09 03:49:12;;;;;;;28.83;8.93;;;35.70;42.10;;;;;;5116547;27;20137;-49
2021/09/09 03:51:38;;;;;;;23.00;7.22;;;35.60;41.70;;;;;;5097631;27;20112;-47
2021/09/09 03:54:05;;;;;;;27.70;8.15;;;35.70;41.50;;;;;;5117573;27;20158;-49
2021/09/09 03:56:32;;;;;;;29.80;8.32;;;35.70;41.50;;;;;;5113724;27;20406;-46
2021/09/09 03:58:58;;;;;;;42.83;10.20;;;35.70;41.60;;;;;;5112976;27;20143;-48
2021/09/09 04:01:25;;;;;;;39.47;9.77;;;35.70;41.60;;;;;;5121381;27;20388;-45
2021/09/09 04:03:51;;;;;;;33.88;10.30;;;35.60;41.50;;;;;;5119526;27;20120;-45
2021/09/09 04:06:20;;;;;;;34.53;10.40;;;35.70;41.40;;;;;;5122115;27;20076;-46
2021/09/09 04:08:46;;;;;;;48.30;11.25;;;35.70;41.40;;;;;;5117071;27;20123;-48
2021/09/09 04:11:13;;;;;;;31.90;10.40;;;35.60;41.90;;;;;;5117546;27;20076;-49
2021/09/09 04:13:39;;;;;;;29.02;11.45;;;35.50;41.90;;;;;;5116006;27;20068;-45
2021/09/09 04:16:06;;;;;;;30.88;9.48;;;35.50;42.50;;;;;;5117732;27;20103;-46
2021/09/09 04:18:32;;;;;;;35.28;10.57;;;35.40;42.20;;;;;;5118496;27;20495;-46
2021/09/09 04:20:59;;;;;;;38.03;9.52;;;35.40;43.10;;;;;;5117977;27;20101;-49
2021/09/09 04:23:26;;;;;;;31.20;8.55;;;35.30;43.00;;;;;;5115275;27;20083;-47
2021/09/09 04:25:53;;;;;;;30.55;7.65;;;35.20;42.90;;;;;;5095842;28;20147;-48
2021/09/09 04:28:19;;;;;;;31.75;7.55;;;35.30;43.30;;;;;;5119435;27;20537;-47
2021/09/09 04:30:48;;;;;;;29.33;7.57;;;35.20;43.80;;;;;;5119491;27;20076;-47
2021/09/09 04:33:15;;;;;;;30.00;8.07;;;35.20;44.10;;;;;;5091363;28;20101;-47
2021/09/09 04:35:41;;;;;;;21.95;7.10;;;35.20;44.60;;;;;;5085532;28;20080;-46
2021/09/09 04:38:08;;;;;;;26.80;6.75;;;35.10;44.80;;;;;;5083893;28;20085;-47
2021/09/09 04:40:34;;;;;;;19.55;6.72;;;35.10;44.80;;;;;;5081271;28;20085;-45
2021/09/09 04:43:01;;;;;;;27.67;6.70;;;35.00;44.70;;;;;;5081488;28;20591;-47
2021/09/09 04:45:28;;;;;;;25.92;6.70;;;35.00;45.20;;;;;;5087166;28;20076;-48
2021/09/09 04:47:54;;;;;;;19.63;6.18;;;34.90;45.10;;;;;;5084140;28;20530;-46
2021/09/09 04:50:21;;;;;;;27.17;5.60;;;34.90;45.20;;;;;;5080873;28;20083;-50
2021/09/09 04:52:47;;;;;;;31.48;5.70;;;34.80;45.40;;;;;;5084955;28;20096;-50
2021/09/09 04:55:14;;;;;;;21.77;5.35;;;34.80;45.40;;;;;;5082727;28;20081;-48
2021/09/09 04:57:40;;;;;;;19.98;5.60;;;34.80;45.60;;;;;;5081325;28;20521;-49
2021/09/09 05:00:08;;;;;;;17.33;5.55;;;34.70;45.40;;;;;;5081110;28;20085;-50
2021/09/09 05:02:34;;;;;;;25.10;5.63;;;34.60;45.30;;;;;;5082909;28;20073;-51
2021/09/09 05:05:01;;;;;;;30.33;5.65;;;34.60;44.90;;;;;;5082539;28;20076;-50
2021/09/09 05:07:28;;;;;;;21.17;4.50;;;34.60;44.60;;;;;;5079361;28;20080;-46
2021/09/09 05:09:54;;;;;;;15.30;3.97;;;34.60;44.20;;;;;;5081577;28;20077;-47
2021/09/09 05:12:20;;;;;;;19.88;3.60;;;34.60;44.00;;;;;;5082989;28;20098;-48
2021/09/09 05:14:47;;;;;;;23.35;3.58;;;34.60;43.80;;;;;;5079478;28;20076;-45
2021/09/09 05:17:14;;;;;;;17.88;3.28;;;34.60;43.90;;;;;;5080360;28;20069;-47
2021/09/09 05:19:40;;;;;;;15.60;3.47;;;34.50;44.10;;;;;;5080579;28;20105;-49
2021/09/09 05:22:06;;;;;;;17.15;3.42;;;34.40;44.40;;;;;;5082289;28;20497;-47
2021/09/09 05:24:33;;;;;;;24.48;3.78;;;34.30;44.50;;;;;;5082608;28;20135;-45
2021/09/09 05:27:00;;;;;;;22.13;4.03;;;34.30;44.60;;;;;;5081321;28;20073;-49
2021/09/09 05:29:26;;;;;;;20.60;4.07;;;34.20;45.10;;;;;;5083219;28;20530;-48
2021/09/09 05:31:53;;;;;;;25.40;4.47;;;34.10;45.40;;;;;;5081416;28;20156;-46
2021/09/09 05:34:19;;;;;;;25.13;6.00;;;34.10;45.80;;;;;;5109163;27;20127;-47
2021/09/09 05:36:46;;;;;;;16.50;6.35;;;33.90;46.00;;;;;;5114764;27;20106;-48
2021/09/09 05:39:13;;;;;;;22.67;7.32;;;33.90;46.30;;;;;;5116332;27;20148;-48
2021/09/09 05:41:39;;;;;;;23.42;7.75;;;33.90;46.30;;;;;;5096726;27;20088;-47
2021/09/09 05:44:05;;;;;;;24.55;7.90;;;33.80;46.50;;;;;;5115984;27;20087;-45
2021/09/09 05:46:32;;;;;;;23.13;7.22;;;33.80;46.80;;;;;;5119298;27;20068;-48
2021/09/09 05:48:58;;;;;;;29.67;7.80;;;33.60;47.00;;;;;;5118710;27;20115;-46
2021/09/09 05:51:25;;;;;;;37.28;8.40;;;33.60;47.00;;;;;;5120215;27;20072;-49
2021/09/09 05:53:51;;;;;;;23.38;8.23;;;33.60;46.90;;;;;;5113923;27;20076;-46
2021/09/09 05:56:18;;;;;;;30.50;8.38;;;33.60;47.20;;;;;;5118768;27;20076;-49
2021/09/09 05:58:48;;;;;;;34.47;8.45;;;33.60;47.40;;;;;;5116312;27;20528;-50
2021/09/09 06:01:14;;;;;;;27.40;8.30;;;33.50;47.60;;;;;;5112535;27;20113;-48
2021/09/09 06:03:41;;;;;;;31.77;7.80;;;33.50;48.10;;;;;;5114490;27;20082;-46
2021/09/09 06:06:09;;;;;;;33.30;8.25;;;33.50;48.30;;;;;;5111906;27;20076;-46
2021/09/09 06:08:37;;;;;;;30.48;7.63;;;33.40;48.20;;;;;;5098542;27;20076;-48
2021/09/09 06:11:04;;;;;;;23.63;8.18;;;33.40;47.90;;;;;;5113236;27;20129;-46
2021/09/09 06:13:32;;;;;;;23.60;6.32;;;33.30;48.10;;;;;;5094737;27;20082;-46
2021/09/09 06:15:58;;;;;;;22.25;6.57;;;33.30;48.10;;;;;;5113620;27;20082;-48
2021/09/09 06:18:25;;;;;;;31.52;6.28;;;33.20;48.20;;;;;;5114007;28;20184;-48
2021/09/09 06:20:51;;;;;;;28.50;5.85;;;33.10;48.40;;;;;;5115363;27;20081;-51
2021/09/09 06:23:17;;;;;;;28.67;5.85;;;33.20;48.40;;;;;;5113869;27;20363;-48
2021/09/09 06:25:44;;;;;;;31.80;4.90;;;33.10;48.30;;;;;;5109076;27;20455;-45
2021/09/09 06:28:11;;;;;;;21.98;4.57;;;33.10;48.40;;;;;;5109823;28;20103;-49
2021/09/09 06:30:37;;;;;;;24.52;4.50;;;33.10;48.90;;;;;;5114964;27;20427;-49
2021/09/09 06:33:04;;;;;;;31.17;4.85;;;33.00;49.40;;;;;;5112758;28;20144;-47
2021/09/09 06:35:30;;;;;;;22.77;3.97;;;32.90;49.20;;;;;;5116642;28;20120;-47
2021/09/09 06:37:57;;;;;;;11.82;3.63;;;32.90;49.80;;;;;;5110576;28;20071;-48
2021/09/09 06:40:24;;;;;;;18.15;3.38;;;32.90;50.40;;;;;;5112859;28;20092;-46
2021/09/09 06:42:50;;;;;;;13.13;3.17;;;32.80;51.00;;;;;;5112586;28;20577;-49
2021/09/09 06:45:17;;;;;;;19.08;3.58;;;32.80;52.10;;;;;;5114628;27;20076;-45
2021/09/09 06:47:43;;;;;;;21.90;3.90;;;32.80;51.60;;;;;;5119973;27;20425;-45
2021/09/09 06:50:10;;;;;;;18.10;3.50;;;32.80;51.90;;;;;;5119458;27;20080;-50
2021/09/09 06:52:37;;;;;;;15.32;4.15;;;32.70;53.00;;;;;;5119222;27;20468;-45
2021/09/09 06:55:04;;;;;;;12.20;3.50;;;32.60;52.90;;;;;;5117565;27;20075;-50
2021/09/09 06:57:31;;;;;;;19.55;4.15;;;32.60;53.90;;;;;;5118553;27;20072;-45
2021/09/09 06:59:57;;;;;;;14.18;3.78;;;32.50;53.70;;;;;;5121336;27;20134;-48
2021/09/09 07:02:24;;;;;;;16.60;3.53;;;32.60;53.60;;;;;;5122090;27;20581;-49
2021/09/09 07:04:50;;;;;;;10.43;3.15;;;32.60;53.50;;;;;;5105068;27;20076;-48
2021/09/09 07:07:17;;;;;;;21.77;3.75;;;32.60;54.10;;;;;;5113537;27;20068;-46
2021/09/09 07:09:44;;;;;;;10.35;4.70;;;32.40;54.60;;;;;;5113437;27;20079;-49
2021/09/09 07:12:10;;;;;;;15.80;5.53;;;32.50;55.30;;;;;;5115779;27;20432;-49
2021/09/09 07:14:37;;;;;;;19.80;7.65;;;32.40;56.00;;;;;;5119780;27;20167;-48
2021/09/09 07:17:03;;;;;;;20.25;8.60;;;32.40;55.80;;;;;;5117674;27;20068;-49
2021/09/09 07:19:30;;;;;;;31.92;11.90;;;32.40;56.00;;;;;;5116205;27;20104;-47
2021/09/09 07:21:56;;;;;;;33.10;12.70;;;32.40;56.10;;;;;;5113572;27;20069;-47
2021/09/09 07:24:23;;;;;;;24.17;11.80;;;32.40;56.10;;;;;;5115462;27;20083;-46
2021/09/09 07:26:50;;;;;;;26.33;8.65;;;32.40;56.30;;;;;;5116609;27;20076;-48
2021/09/09 07:29:16;;;;;;;12.40;4.75;;;32.40;56.10;;;;;;5116443;27;20076;-46
2021/09/09 07:31:44;;;;;;;12.10;3.60;;;32.20;57.40;;;;;;5116796;27;20079;-47
2021/09/09 07:34:12;;;;;;;11.40;2.40;;;32.20;59.10;;;;;;5114653;27;20112;-47
2021/09/09 07:36:39;;;;;;;9.20;2.10;;;32.10;60.20;;;;;;5116414;27;20163;-49
2021/09/09 07:39:06;;;;;;;12.05;3.30;;;32.00;61.20;;;;;;5113367;27;20091;-48
2021/09/09 07:41:33;;;;;;;13.43;3.08;;;32.00;62.50;;;;;;5115452;27;20163;-50
2021/09/09 07:44:00;;;;;;;7.65;2.85;;;31.90;63.30;;;;;;5115847;27;20159;-50
2021/09/09 07:46:30;;;;;;;6.70;2.35;;;31.80;63.60;;;;;;5116898;27;20079;-46
2021/09/09 07:48:57;;;;;;;16.88;2.20;;;31.90;92.40;;;;;;5114884;27;20134;-49
2021/09/09 07:51:23;;;;;;;13.57;2.30;;;31.20;81.10;;;;;;5116467;27;20431;-48
2021/09/09 07:53:51;;;;;;;8.90;2.05;;;31.40;97.40;;;;;;5116267;27;20016;-46
2021/09/09 07:56:17;;;;;;;9.23;2.58;;;31.80;95.90;;;;;;5116648;27;20274;-47
2021/09/09 07:58:48;;;;;;;5.43;2.25;;;31.50;67.20;;;;;;5117298;27;20537;-47
2021/09/09 08:01:17;;;;;;;8.40;2.15;;;31.50;67.80;;;;;;5116821;27;20086;-47
2021/09/09 08:03:44;;;;;;;6.30;2.25;;;31.50;68.40;;;;;;5118372;27;20072;-49
2021/09/09 08:06:10;;;;;;;8.55;1.98;;;31.60;68.70;;;;;;5117188;27;20529;-49
2021/09/09 08:08:37;;;;;;;8.93;2.10;;;31.50;69.10;;;;;;5118422;27;20072;-46
2021/09/09 08:11:04;;;;;;;12.52;2.95;;;31.40;70.00;;;;;;5112832;27;20433;-46
2021/09/09 08:13:30;;;;;;;9.43;2.28;;;31.50;70.30;;;;;;5116208;27;20073;-48
2021/09/09 08:15:57;;;;;;;7.72;2.03;;;31.40;70.90;;;;;;5112978;27;20080;-46
2021/09/09 08:18:24;;;;;;;5.95;2.08;;;31.50;71.00;;;;;;5119650;27;20182;-45
2021/09/09 08:20:54;;;;;;;10.82;2.65;;;31.50;71.60;;;;;;5113163;27;20171;-45
2021/09/09 08:23:21;;;;;;;11.77;2.55;;;31.50;72.70;;;;;;5117385;27;20088;-45
2021/09/09 08:25:48;;;;;;;13.05;2.53;;;31.50;72.50;;;;;;5114275;27;20074;-44
2021/09/09 08:28:17;;;;;;;8.35;2.60;;;31.60;73.50;;;;;;5115083;27;20069;-45
2021/09/09 08:30:45;;;;;;;11.55;2.78;;;31.50;72.80;;;;;;5121129;27;20148;-48
2021/09/09 08:33:12;;;;;;;11.05;3.35;;;31.50;73.60;;;;;;5114022;27;20541;-46
2021/09/09 08:35:43;;;;;;;16.80;4.22;;;31.30;74.60;;;;;;5116597;27;20103;-46
2021/09/09 08:38:10;;;;;;;13.77;3.90;;;31.30;75.00;;;;;;5111951;27;20100;-47
2021/09/09 08:40:38;;;;;;;19.35;4.55;;;31.30;75.30;;;;;;5116192;27;20087;-46
2021/09/09 08:43:06;;;;;;;11.18;4.47;;;31.30;75.60;;;;;;5114310;27;20084;-47
2021/09/09 08:45:33;;;;;;;17.27;5.35;;;31.30;75.80;;;;;;5118369;27;20080;-51
2021/09/09 08:48:04;;;;;;;15.68;5.72;;;31.20;76.50;;;;;;5115288;27;20076;-49
2021/09/09 08:50:32;;;;;;;16.88;5.78;;;31.20;76.70;;;;;;5118319;27;20076;-45
2021/09/09 08:53:00;;;;;;;14.38;5.05;;;31.20;77.30;;;;;;5112824;27;20137;-45
2021/09/09 08:55:27;;;;;;;14.50;5.55;;;31.20;77.50;;;;;;5116828;27;20071;-47
2021/09/09 08:57:56;;;;;;;18.13;5.65;;;31.30;77.50;;;;;;5114068;27;20443;-47
2021/09/09 09:00:23;;;;;;;16.45;6.22;;;31.20;77.70;;;;;;5113924;27;20080;-44
2021/09/09 09:02:55;;;;;;;19.45;6.07;;;31.10;78.90;;;;;;5113615;27;20064;-47
2021/09/09 09:05:22;;;;;;;14.40;5.13;;;30.90;79.60;;;;;;5119578;27;20124;-49
2021/09/09 09:08:01;;;;;;;16.20;5.40;;;31.00;80.00;;;;;;5117413;27;20496;-46
2021/09/09 09:10:28;;;;;;;18.98;6.22;;;31.00;80.00;;;;;;5115355;27;20084;-46
2021/09/09 09:12:54;;;;;;;19.77;6.80;;;31.00;80.30;;;;;;5114470;27;20072;-45
2021/09/09 09:15:24;;;;;;;21.77;7.40;;;31.00;80.70;;;;;;5115352;27;20071;-47
2021/09/09 09:18:02;;;;;;;18.25;7.78;;;31.00;80.80;;;;;;5116905;27;20076;-48
2021/09/09 09:20:48;;;;;;;26.00;8.77;;;31.00;80.80;;;;;;5118604;27;20137;-46
2021/09/09 09:23:24;;;;;;;19.67;8.27;;;31.00;80.80;;;;;;5112488;27;20079;-47
2021/09/09 09:26:01;;;;;;;24.55;8.40;;;31.00;81.00;;;;;;5113054;27;20541;-50
2021/09/09 09:28:51;;;;;;;22.48;8.48;;;31.10;80.90;;;;;;5114664;27;20082;-47
2021/09/09 09:31:21;;;;;;;19.58;7.78;;;31.10;80.50;;;;;;5118426;27;20345;-50
2021/09/09 09:34:09;;;;;;;15.40;6.55;;;31.10;81.10;;;;;;5116691;27;20108;-50
2021/09/09 09:36:43;;;;;;;16.92;6.25;;;31.10;81.40;;;;;;5112324;27;20121;-50
2021/09/09 09:39:19;;;;;;;14.32;5.90;;;31.10;81.30;;;;;;5112530;27;20119;-45
2021/09/09 09:41:55;;;;;;;12.18;3.65;;;31.10;81.40;;;;;;5113848;27;21615;-46
2021/09/09 09:44:35;;;;;;;11.60;2.72;;;31.00;82.10;;;;;;5116607;27;20076;-45
2021/09/09 09:47:15;;;;;;;11.00;2.90;;;30.90;82.90;;;;;;5115121;27;20068;-46
2021/09/09 09:49:44;;;;;;;5.05;2.17;;;30.80;84.20;;;;;;5116665;27;20124;-45
2021/09/09 09:52:23;;;;;;;8.15;1.85;;;30.90;84.50;;;;;;5095599;27;20080;-44
2021/09/09 09:54:55;;;;;;;7.80;1.92;;;30.80;85.00;;;;;;5111325;27;21543;-45
2021/09/09 09:57:23;;;;;;;7.82;2.00;;;30.70;86.40;;;;;;5114900;27;20072;-45
2021/09/09 09:59:50;;;;;;;10.15;1.52;;;30.80;87.20;;;;;;5119039;27;20096;-44
2021/09/09 10:02:17;;;;;;;8.35;1.85;;;30.70;87.30;;;;;;5111466;27;20101;-45
2021/09/09 10:04:45;;;;;;;6.20;1.80;;;30.60;88.20;;;;;;5115142;27;20071;-44
2021/09/09 10:07:14;;;;;;;9.50;1.88;;;30.60;88.70;;;;;;5114508;27;20076;-44
2021/09/09 10:09:41;;;;;;;14.18;2.58;;;30.60;89.40;;;;;;5114119;27;20096;-44
2021/09/09 10:12:10;;;;;;;7.03;1.60;;;30.50;89.90;;;;;;5113307;27;20080;-46
2021/09/09 10:14:45;;;;;;;9.70;1.98;;;30.50;90.50;;;;;;5112557;27;20129;-47
2021/09/09 10:17:12;;;;;;;8.27;2.00;;;30.40;91.00;;;;;;5112380;27;20083;-46
2021/09/09 10:19:39;;;;;;;9.38;2.17;;;30.50;91.10;;;;;;5113781;28;20104;-47
2021/09/09 10:22:12;;;;;;;7.15;2.30;;;30.50;91.30;;;;;;5120045;27;20071;-46
2021/09/09 10:24:44;;;;;;;9.63;2.28;;;30.60;91.20;;;;;;5111680;27;20068;-47
2021/09/09 10:27:34;;;;;;;9.02;2.17;;;30.50;91.40;;;;;;5108963;28;20167;-45
2021/09/09 10:30:05;;;;;;;8.35;2.50;;;30.40;91.80;;;;;;5111634;28;20155;-49
2021/09/09 10:32:35;;;;;;;11.75;2.60;;;30.40;92.10;;;;;;5112879;27;20110;-48
2021/09/09 10:35:22;;;;;;;10.30;3.30;;;30.40;92.30;;;;;;5113435;28;20165;-46
2021/09/09 10:37:53;;;;;;;12.48;3.25;;;30.20;92.50;;;;;;5114539;28;20083;-48
2021/09/09 10:40:32;;;;;;;9.13;2.53;;;30.20;93.50;;;;;;5111765;28;20185;-47
2021/09/09 10:43:06;;;;;;;10.90;2.90;;;30.20;93.30;;;;;;5112080;28;20517;-47
2021/09/09 10:45:36;;;;;;;13.30;2.80;;;30.20;93.90;;;;;;5113509;28;20078;-45
2021/09/09 10:48:08;;;;;;;11.65;2.85;;;30.20;93.80;;;;;;5114578;28;20543;-46
2021/09/09 10:50:35;;;;;;;10.90;2.35;;;30.20;94.20;;;;;;5116426;28;20073;-48
2021/09/09 10:53:13;;;;;;;8.18;2.30;;;30.10;95.10;;;;;;5111176;28;20068;-47
2021/09/09 10:55:43;;;;;;;10.65;2.30;;;30.10;95.70;;;;;;5110503;28;20816;-45
2021/09/09 10:58:16;;;;;;;5.88;1.95;;;30.10;95.70;;;;;;5114871;28;20076;-48
2021/09/09 11:00:51;;;;;;;9.35;2.15;;;30.10;96.00;;;;;;5114256;28;20121;-47
2021/09/09 11:03:50;;;;;;;8.60;2.40;;;30.20;96.10;;;;;;5111976;28;20425;-46
2021/09/09 11:06:21;;;;;;;11.23;2.85;;;30.00;97.00;;;;;;5111686;28;20472;-48
2021/09/09 11:08:52;;;;;;;10.98;2.53;;;30.00;97.20;;;;;;5113077;28;20129;-45
2021/09/09 11:11:24;;;;;;;10.45;2.30;;;30.10;97.20;;;;;;5113434;28;20164;-47
2021/09/09 11:14:05;;;;;;;10.43;2.45;;;30.00;97.40;;;;;;5113182;28;20076;-46
2021/09/09 11:16:34;;;;;;;12.23;2.70;;;29.80;98.00;;;;;;5111797;28;20091;-45
2021/09/09 11:19:02;;;;;;;9.98;2.65;;;29.90;98.60;;;;;;5112133;28;20135;-45
2021/09/09 11:21:32;;;;;;;9.07;2.88;;;30.00;98.50;;;;;;5112052;28;20083;-47
2021/09/09 11:24:06;;;;;;;11.55;3.00;;;29.80;98.90;;;;;;5111887;28;20441;-46
2021/09/09 11:26:33;;;;;;;10.98;3.22;;;29.80;99.10;;;;;;5111582;28;20121;-46
2021/09/09 11:29:01;;;;;;;11.98;3.17;;;29.80;99.60;;;;;;5117312;28;20077;-47
2021/09/09 11:31:33;;;;;;;10.50;2.72;;;29.90;99.60;;;;;;5115585;27;20137;-45
2021/09/09 11:34:05;;;;;;;10.80;2.90;;;29.80;99.90;;;;;;5121037;27;20459;-46
2021/09/09 11:36:37;;;;;;;11.48;3.45;;;29.80;99.90;;;;;;5113560;27;20082;-46
2021/09/09 11:39:19;;;;;;;8.57;2.80;;;29.80;99.90;;;;;;5114740;27;20089;-47
2021/09/09 11:41:47;;;;;;;10.40;2.80;;;29.70;99.90;;;;;;5115318;27;20106;-47
2021/09/09 11:44:33;;;;;;;8.93;2.67;;;29.60;99.90;;;;;;5115110;27;20494;-49
2021/09/09 11:47:09;;;;;;;13.43;2.78;;;29.60;99.90;;;;;;5116142;27;20083;-46
2021/09/09 11:49:35;;;;;;;6.07;2.20;;;29.60;99.90;;;;;;5082547;27;20137;-46
2021/09/09 11:52:04;;;;;;;7.28;2.40;;;29.60;99.90;;;;;;5116229;27;20557;-49
2021/09/09 11:54:36;;;;;;;15.75;3.47;;;29.70;99.90;;;;;;5118395;27;20128;-46
2021/09/09 11:57:15;;;;;;;14.80;3.88;;;29.60;99.90;;;;;;5113752;27;20080;-45
2021/09/09 11:59:54;;;;;;;9.38;3.03;;;29.60;99.90;;;;;;5111686;27;20130;-45
2021/09/09 12:02:27;;;;;;;14.10;3.20;;;29.70;99.90;;;;;;5115954;27;20107;-48
2021/09/09 12:04:55;;;;;;;20.55;3.25;;;29.70;99.90;;;;;;5119606;27;20159;-48
2021/09/09 12:07:26;;;;;;;14.50;3.42;;;29.60;99.90;;;;;;5116555;27;20525;-47
2021/09/09 12:09:58;;;;;;;10.98;2.97;;;29.70;99.90;;;;;;5118984;27;20076;-47
2021/09/09 12:12:29;;;;;;;10.50;2.88;;;29.70;99.90;;;;;;5110754;27;20072;-45
2021/09/09 12:15:00;;;;;;;16.42;3.25;;;29.50;99.90;;;;;;5115199;27;20071;-47
2021/09/09 12:17:27;;;;;;;13.05;2.80;;;29.60;99.90;;;;;;5117805;27;20088;-44
2021/09/09 12:19:55;;;;;;;17.02;3.30;;;29.60;99.90;;;;;;5115054;27;20537;-50
2021/09/09 12:22:42;;;;;;;12.43;4.30;;;29.70;99.90;;;;;;5115839;27;20068;-45
2021/09/09 12:25:15;;;;;;;;;;;29.70;99.90;;;;;;5104940;27;20349;-47
2021/09/09 12:28:01;;;;;;;21.63;6.53;;;29.60;99.90;;;;;;5117046;27;20416;-45
2021/09/09 12:30:31;;;;;;;14.63;6.47;;;29.50;99.90;;;;;;5114128;27;20084;-49
2021/09/09 12:32:59;;;;;;;19.85;6.57;;;29.50;99.90;;;;;;5115843;27;20399;-45
2021/09/09 12:35:26;;;;;;;14.65;5.85;;;29.50;99.90;;;;;;5125528;27;20172;-48
2021/09/09 12:38:12;;;;;;;16.83;6.20;;;29.50;99.90;;;;;;5115841;27;20125;-44
2021/09/09 12:40:47;;;;;;;19.95;7.32;;;29.50;99.90;;;;;;5117672;27;20092;-46
2021/09/09 12:43:31;;;;;;;24.37;7.60;;;29.30;99.90;;;;;;5115938;27;20125;-47
2021/09/09 12:46:00;;;;;;;23.63;7.10;;;29.30;99.90;;;;;;5117788;27;20088;-46